createdAt,value
2022-07-31T00:00:53.537Z,6.43
2022-07-31T00:03:21.554Z,3.88
2022-07-31T00:05:49.574Z,3.63
2022-07-31T00:08:17.809Z,3.38
2022-07-31T00:10:45.770Z,2.95
2022-07-31T00:13:15.321Z,4.53
2022-07-31T00:15:43.240Z,3.08
2022-07-31T00:18:11.725Z,4.80
2022-07-31T00:20:39.698Z,3.28
2022-07-31T00:23:07.677Z,4.50
2022-07-31T00:25:38.916Z,4.07
2022-07-31T00:28:08.115Z,5.20
2022-07-31T00:30:37.397Z,3.05
2022-07-31T00:33:05.485Z,3.50
2022-07-31T00:35:33.488Z,4.90
2022-07-31T00:38:25.617Z,3.38
2022-07-31T00:40:50.232Z,4.90
2022-07-31T00:43:19.413Z,4.07
2022-07-31T00:45:56.262Z,3.55
2022-07-31T00:48:28.033Z,3.40
2022-07-31T00:50:56.235Z,4.40
2022-07-31T00:53:24.150Z,4.97
2022-07-31T00:55:52.388Z,2.73
2022-07-31T00:58:20.637Z,4.43
2022-07-31T01:00:50.173Z,3.28
2022-07-31T01:03:18.716Z,4.35
2022-07-31T01:05:46.750Z,3.00
2022-07-31T01:08:15.004Z,4.35
2022-07-31T01:10:50.123Z,3.50
2022-07-31T01:13:25.138Z,4.45
2022-07-31T01:15:56.284Z,5.75
2022-07-31T01:18:27.537Z,3.30
2022-07-31T01:20:58.870Z,6.45
2022-07-31T01:23:55.171Z,4.13
2022-07-31T01:26:44.514Z,5.78
2022-07-31T01:29:23.071Z,4.07
2022-07-31T01:31:57.743Z,5.20
2022-07-31T01:34:32.734Z,5.13
2022-07-31T01:37:16.795Z,5.03
2022-07-31T01:39:50.688Z,3.22
2022-07-31T01:42:20.790Z,3.17
2022-07-31T01:44:54.048Z,5.18
2022-07-31T01:47:24.111Z,6.03
2022-07-31T01:49:54.122Z,3.00
2022-07-31T01:52:24.352Z,4.95
2022-07-31T01:54:54.155Z,4.50
2022-07-31T01:57:24.616Z,3.42
2022-07-31T01:59:56.283Z,5.03
2022-07-31T02:02:26.298Z,3.47
2022-07-31T02:04:55.818Z,6.30
2022-07-31T02:07:25.278Z,4.25
2022-07-31T02:09:58.489Z,4.13
2022-07-31T02:12:32.076Z,2.70
2022-07-31T02:15:04.081Z,4.00
2022-07-31T02:17:32.658Z,2.73
2022-07-31T02:20:01.564Z,4.45
2022-07-31T02:22:30.218Z,3.58
2022-07-31T02:24:58.367Z,2.72
2022-07-31T02:27:55.452Z,3.72
2022-07-31T02:30:17.595Z,3.55
2022-07-31T02:32:48.032Z,2.90
2022-07-31T02:35:18.580Z,3.17
2022-07-31T02:37:49.823Z,4.35
2022-07-31T02:40:18.741Z,4.53
2022-07-31T02:42:47.945Z,5.03
2022-07-31T02:45:17.675Z,3.55
2022-07-31T02:47:46.014Z,3.67
2022-07-31T02:50:14.229Z,4.40
2022-07-31T02:52:48.272Z,4.22
2022-07-31T02:55:16.587Z,3.78
2022-07-31T02:57:44.673Z,3.92
2022-07-31T03:00:22.981Z,5.07
2022-07-31T03:02:51.436Z,3.92
2022-07-31T03:05:19.564Z,4.88
2022-07-31T03:07:47.761Z,3.20
2022-07-31T03:10:15.717Z,5.20
2022-07-31T03:12:46.291Z,5.20
2022-07-31T03:15:16.044Z,2.83
2022-07-31T03:17:46.492Z,4.22
2022-07-31T03:20:16.290Z,4.05
2022-07-31T03:22:44.883Z,4.63
2022-07-31T03:25:20.213Z,2.87
2022-07-31T03:27:56.335Z,4.95
2022-07-31T03:30:25.894Z,3.30
2022-07-31T03:32:55.877Z,3.25
2022-07-31T03:35:24.735Z,3.95
2022-07-31T03:37:53.370Z,4.10
2022-07-31T03:40:21.348Z,3.60
2022-07-31T03:42:50.892Z,4.38
2022-07-31T03:45:20.472Z,5.00
2022-07-31T03:47:48.467Z,3.25
2022-07-31T03:50:18.454Z,5.22
2022-07-31T03:52:47.665Z,2.92
2022-07-31T03:55:15.885Z,3.40
2022-07-31T03:57:44.713Z,2.87
2022-07-31T04:00:18.054Z,4.60
2022-07-31T04:02:47.249Z,3.00
2022-07-31T04:05:15.375Z,3.65
2022-07-31T04:07:44.718Z,6.47
2022-07-31T04:10:12.739Z,4.00
2022-07-31T04:12:40.766Z,3.20
2022-07-31T04:15:09.301Z,2.92
2022-07-31T04:17:37.347Z,2.92
2022-07-31T04:20:06.238Z,3.42
2022-07-31T04:22:34.212Z,4.28
2022-07-31T04:25:05.776Z,3.63
2022-07-31T04:27:33.738Z,3.50
2022-07-31T04:30:01.631Z,4.33
2022-07-31T04:32:31.017Z,3.13
2022-07-31T04:34:59.041Z,8.60
2022-07-31T04:37:26.974Z,5.10
2022-07-31T04:39:55.116Z,4.10
2022-07-31T04:42:24.350Z,4.03
2022-07-31T04:44:52.305Z,4.25
2022-07-31T04:47:22.116Z,3.58
2022-07-31T04:49:50.150Z,3.95
2022-07-31T04:52:18.092Z,5.25
2022-07-31T04:54:46.102Z,4.22
2022-07-31T04:57:16.358Z,5.28
2022-07-31T04:59:59.315Z,7.07
2022-07-31T05:02:28.751Z,7.18
2022-07-31T05:04:57.564Z,7.75
2022-07-31T05:07:27.561Z,8.75
2022-07-31T05:09:57.076Z,6.07
2022-07-31T05:12:25.097Z,3.40
2022-07-31T05:14:54.463Z,6.82
2022-07-31T05:17:22.433Z,7.90
2022-07-31T05:19:50.443Z,4.05
2022-07-31T05:22:18.818Z,4.68
2022-07-31T05:24:46.880Z,5.05
2022-07-31T05:27:14.812Z,4.85
2022-07-31T05:29:42.802Z,8.20
2022-07-31T05:32:12.437Z,4.50
2022-07-31T05:34:40.615Z,4.43
2022-07-31T05:37:08.648Z,5.00
2022-07-31T05:39:36.635Z,4.88
2022-07-31T05:42:04.876Z,6.53
2022-07-31T05:44:33.212Z,5.30
2022-07-31T05:47:01.118Z,3.83
2022-07-31T05:49:30.981Z,4.17
2022-07-31T05:51:58.959Z,4.25
2022-07-31T05:54:26.932Z,4.47
2022-07-31T05:56:54.824Z,5.97
2022-07-31T05:59:22.778Z,3.90
2022-07-31T06:01:50.811Z,5.07
2022-07-31T06:04:18.819Z,3.83
2022-07-31T06:06:48.161Z,4.57
2022-07-31T06:09:16.126Z,5.53
2022-07-31T06:11:44.037Z,5.53
2022-07-31T06:14:11.998Z,5.28
2022-07-31T06:16:39.931Z,3.10
2022-07-31T06:19:07.853Z,4.18
2022-07-31T06:21:35.782Z,4.32
2022-07-31T06:24:05.844Z,4.17
2022-07-31T06:26:35.561Z,3.97
2022-07-31T06:29:03.496Z,4.50
2022-07-31T06:31:31.617Z,4.97
2022-07-31T06:33:59.517Z,4.15
2022-07-31T06:36:27.426Z,5.28
2022-07-31T06:38:55.363Z,4.18
2022-07-31T06:41:42.419Z,6.30
2022-07-31T06:44:10.381Z,6.90
2022-07-31T06:46:38.445Z,4.97
2022-07-31T06:49:17.577Z,6.03
2022-07-31T06:51:46.012Z,6.35
2022-07-31T06:54:13.994Z,6.38
2022-07-31T06:56:43.294Z,4.55
2022-07-31T06:59:11.259Z,7.33
2022-07-31T07:01:39.291Z,5.30
2022-07-31T07:04:07.328Z,7.47
2022-07-31T07:06:35.315Z,6.32
2022-07-31T07:09:03.297Z,5.65
2022-07-31T07:11:31.339Z,8.20
2022-07-31T07:14:00.631Z,8.98
2022-07-31T07:16:28.564Z,5.80
2022-07-31T07:18:56.524Z,6.47
2022-07-31T07:21:24.637Z,6.30
2022-07-31T07:23:52.573Z,7.85
2022-07-31T07:26:20.865Z,7.70
2022-07-31T07:28:48.831Z,8.10
2022-07-31T07:31:18.075Z,8.00
2022-07-31T07:33:47.797Z,8.57
2022-07-31T07:36:22.850Z,8.95
2022-07-31T07:38:51.650Z,7.60
2022-07-31T07:41:19.594Z,8.88
2022-07-31T07:43:48.631Z,10.45
2022-07-31T07:46:22.112Z,10.40
2022-07-31T07:48:50.852Z,11.70
2022-07-31T07:51:19.483Z,9.88
2022-07-31T07:53:47.690Z,11.45
2022-07-31T07:56:15.661Z,9.93
2022-07-31T07:58:43.644Z,11.45
2022-07-31T08:01:11.961Z,12.13
2022-07-31T08:03:49.435Z,13.63
2022-07-31T08:06:20.020Z,15.30
2022-07-31T08:08:47.989Z,19.13
2022-07-31T08:11:17.162Z,13.18
2022-07-31T08:13:50.060Z,13.55
2022-07-31T08:16:19.209Z,13.30
2022-07-31T08:18:48.799Z,14.43
2022-07-31T08:21:16.795Z,17.07
2022-07-31T08:23:44.917Z,14.85
2022-07-31T08:26:13.054Z,15.10
2022-07-31T08:28:41.582Z,17.60
2022-07-31T08:31:18.179Z,15.57
2022-07-31T08:33:46.157Z,18.40
2022-07-31T08:36:15.473Z,17.92
2022-07-31T08:38:43.441Z,18.25
2022-07-31T08:41:13.912Z,17.60
2022-07-31T08:43:59.823Z,16.27
2022-07-31T08:46:30.338Z,19.35
2022-07-31T08:48:59.039Z,16.17
2022-07-31T08:51:29.684Z,18.35
2022-07-31T08:53:58.524Z,17.93
2022-07-31T08:56:26.923Z,17.75
2022-07-31T08:58:56.996Z,15.85
2022-07-31T09:01:25.413Z,16.73
2022-07-31T09:03:54.152Z,15.75
2022-07-31T09:06:22.151Z,17.08
2022-07-31T09:08:51.512Z,18.60
2022-07-31T09:11:19.717Z,16.88
2022-07-31T09:14:02.153Z,17.83
2022-07-31T09:16:31.643Z,16.67
2022-07-31T09:19:00.696Z,17.75
2022-07-31T09:21:39.294Z,19.70
2022-07-31T09:24:10.231Z,19.25
2022-07-31T09:26:40.858Z,18.98
2022-07-31T09:29:11.900Z,17.30
2022-07-31T09:31:40.430Z,17.08
2022-07-31T09:34:08.396Z,17.50
2022-07-31T09:36:36.406Z,17.97
2022-07-31T09:39:20.474Z,18.48
2022-07-31T09:42:01.776Z,18.08
2022-07-31T09:44:45.741Z,19.73
2022-07-31T09:47:26.889Z,18.98
2022-07-31T09:49:56.088Z,19.88
2022-07-31T09:52:24.407Z,18.92
2022-07-31T09:55:16.130Z,18.52
2022-07-31T09:57:54.112Z,19.73
2022-07-31T10:00:22.513Z,22.83
2022-07-31T10:02:52.116Z,19.67
2022-07-31T10:05:21.862Z,19.55
2022-07-31T10:07:50.884Z,17.90
2022-07-31T10:10:21.533Z,18.83
2022-07-31T10:12:53.285Z,18.92
2022-07-31T10:15:22.016Z,17.58
2022-07-31T10:17:52.615Z,20.70
2022-07-31T10:20:25.590Z,19.08
2022-07-31T10:22:57.811Z,19.58
2022-07-31T10:25:29.922Z,17.58
2022-07-31T10:27:58.360Z,16.57
2022-07-31T10:30:28.368Z,15.03
2022-07-31T10:32:57.005Z,15.38
2022-07-31T10:35:25.336Z,16.30
2022-07-31T10:37:59.360Z,15.07
2022-07-31T10:40:36.569Z,16.73
2022-07-31T10:43:20.567Z,17.00
2022-07-31T10:45:50.188Z,15.60
2022-07-31T10:48:18.533Z,17.67
2022-07-31T10:50:47.348Z,15.77
2022-07-31T10:53:19.448Z,15.32
2022-07-31T10:55:48.823Z,20.10
2022-07-31T10:58:19.734Z,14.63
2022-07-31T11:00:47.795Z,15.45
2022-07-31T11:03:17.858Z,16.77
2022-07-31T11:06:00.941Z,15.53
2022-07-31T11:08:42.268Z,16.75
2022-07-31T11:11:12.079Z,16.43
2022-07-31T11:13:47.725Z,17.20
2022-07-31T11:16:16.114Z,15.75
2022-07-31T11:18:46.142Z,16.23
2022-07-31T11:21:37.196Z,16.47
2022-07-31T11:24:12.369Z,14.15
2022-07-31T11:26:49.711Z,14.43
2022-07-31T11:29:58.523Z,14.90
2022-07-31T11:32:16.749Z,14.75
2022-07-31T11:34:49.098Z,15.25
2022-07-31T11:37:23.200Z,14.63
2022-07-31T11:39:52.763Z,15.03
2022-07-31T11:42:26.539Z,15.50
2022-07-31T11:45:08.394Z,14.17
2022-07-31T11:48:11.914Z,14.88
2022-07-31T11:50:30.830Z,15.80
2022-07-31T11:53:04.232Z,16.83
2022-07-31T11:55:32.351Z,15.47
2022-07-31T11:58:01.627Z,13.23
2022-07-31T12:00:30.285Z,12.77
2022-07-31T12:03:00.500Z,12.53
2022-07-31T12:05:37.935Z,13.80
2022-07-31T12:08:10.322Z,15.07
2022-07-31T12:10:39.611Z,14.03
2022-07-31T12:13:15.744Z,12.73
2022-07-31T12:15:59.516Z,9.82
2022-07-31T12:18:28.278Z,11.90
2022-07-31T12:20:58.754Z,12.33
2022-07-31T12:23:40.245Z,11.57
2022-07-31T12:26:11.638Z,11.10
2022-07-31T12:28:43.963Z,8.13
2022-07-31T12:31:11.931Z,8.50
2022-07-31T12:33:45.635Z,8.53
2022-07-31T12:36:15.383Z,7.68
2022-07-31T12:38:47.652Z,8.70
2022-07-31T12:41:17.314Z,6.33
2022-07-31T12:43:51.168Z,6.45
2022-07-31T12:46:21.664Z,6.57
2022-07-31T12:48:49.690Z,6.28
2022-07-31T12:51:20.186Z,8.47
2022-07-31T12:54:09.062Z,8.23
2022-07-31T12:56:37.634Z,6.00
2022-07-31T12:59:07.700Z,5.55
2022-07-31T13:01:36.754Z,7.03
2022-07-31T13:04:19.238Z,5.93
2022-07-31T13:06:52.027Z,3.83
2022-07-31T13:09:22.560Z,4.03
2022-07-31T13:11:55.823Z,3.73
2022-07-31T13:14:27.244Z,5.18
2022-07-31T13:16:56.136Z,5.15
2022-07-31T13:19:24.116Z,4.45
2022-07-31T13:21:52.054Z,4.63
2022-07-31T13:24:24.942Z,4.33
2022-07-31T13:26:52.922Z,5.60
2022-07-31T13:29:21.037Z,3.80
2022-07-31T13:31:50.352Z,4.53
2022-07-31T13:34:18.315Z,4.53
2022-07-31T13:36:46.277Z,3.53
2022-07-31T13:39:14.274Z,7.63
2022-07-31T13:41:42.728Z,3.58
2022-07-31T13:44:10.890Z,3.42
2022-07-31T13:46:38.865Z,3.08
2022-07-31T13:49:10.402Z,3.23
2022-07-31T13:51:39.065Z,3.30
2022-07-31T13:54:07.155Z,4.03
2022-07-31T13:56:42.468Z,4.77
2022-07-31T13:59:12.980Z,4.23
2022-07-31T14:02:03.122Z,4.07
2022-07-31T14:04:32.705Z,3.70
2022-07-31T14:07:07.483Z,4.23
2022-07-31T14:09:35.998Z,3.45
2022-07-31T14:12:05.827Z,3.88
2022-07-31T14:14:34.171Z,3.28
2022-07-31T14:17:04.816Z,3.00
2022-07-31T14:19:40.513Z,4.72
2022-07-31T14:22:13.913Z,5.32
2022-07-31T14:24:49.356Z,3.72
2022-07-31T14:27:19.921Z,3.33
2022-07-31T14:29:48.867Z,5.00
2022-07-31T14:32:16.867Z,4.38
2022-07-31T14:34:46.200Z,3.33
2022-07-31T14:37:14.173Z,3.78
2022-07-31T14:39:42.869Z,3.53
2022-07-31T14:42:11.192Z,2.63
2022-07-31T14:44:41.584Z,3.45
2022-07-31T14:47:10.202Z,2.97
2022-07-31T14:50:08.977Z,3.13
2022-07-31T14:52:28.255Z,3.28
2022-07-31T14:54:56.564Z,3.23
2022-07-31T14:57:26.250Z,2.75
2022-07-31T14:59:54.234Z,3.45
2022-07-31T15:02:22.963Z,2.75
2022-07-31T15:04:51.237Z,4.30
2022-07-31T15:07:42.374Z,3.92
2022-07-31T15:10:12.658Z,3.97
2022-07-31T15:12:40.934Z,4.73
2022-07-31T15:15:10.291Z,4.63
2022-07-31T15:17:38.306Z,3.00
2022-07-31T15:20:07.138Z,5.22
2022-07-31T15:22:35.115Z,3.63
2022-07-31T15:25:03.036Z,4.68
2022-07-31T15:27:32.260Z,2.97
2022-07-31T15:30:07.015Z,2.80
2022-07-31T15:32:36.896Z,3.90
2022-07-31T15:35:06.108Z,4.22
2022-07-31T15:37:38.225Z,4.32
2022-07-31T15:40:07.938Z,3.10
2022-07-31T15:42:40.496Z,3.85
2022-07-31T15:45:11.902Z,4.82
2022-07-31T15:47:40.159Z,5.53
2022-07-31T15:50:09.797Z,4.23
2022-07-31T15:52:37.966Z,4.23
2022-07-31T15:55:07.239Z,3.00
2022-07-31T15:57:35.359Z,3.95
2022-07-31T16:00:07.313Z,3.43
2022-07-31T16:02:35.280Z,5.30
2022-07-31T16:05:11.885Z,4.87
2022-07-31T16:08:30.530Z,5.15
2022-07-31T16:10:38.748Z,5.17
2022-07-31T16:13:06.862Z,4.47
2022-07-31T16:15:36.169Z,5.07
2022-07-31T16:18:06.446Z,7.00
2022-07-31T16:20:37.120Z,6.25
2022-07-31T16:23:05.023Z,5.05
2022-07-31T16:25:35.069Z,4.93
2022-07-31T16:28:03.464Z,7.10
2022-07-31T16:30:32.021Z,6.57
2022-07-31T16:33:01.409Z,7.37
2022-07-31T16:35:29.417Z,6.80
2022-07-31T16:37:57.362Z,7.83
2022-07-31T16:40:30.244Z,7.72
2022-07-31T16:43:01.769Z,9.20
2022-07-31T16:45:30.790Z,8.33
2022-07-31T16:47:59.480Z,6.47
2022-07-31T16:50:29.039Z,5.67
2022-07-31T16:52:57.023Z,7.72
2022-07-31T16:55:55.692Z,8.93
2022-07-31T16:58:15.724Z,6.43
2022-07-31T17:00:43.740Z,5.83
2022-07-31T17:03:59.326Z,8.07
2022-07-31T17:06:04.880Z,7.00
2022-07-31T17:08:32.825Z,4.83
2022-07-31T17:11:00.699Z,6.68
2022-07-31T17:13:28.631Z,4.80
2022-07-31T17:15:56.561Z,6.15
2022-07-31T17:18:26.103Z,6.43
2022-07-31T17:20:56.251Z,5.67
2022-07-31T17:23:43.466Z,7.80
2022-07-31T17:26:21.452Z,6.47
2022-07-31T17:28:50.574Z,7.23
2022-07-31T17:31:19.041Z,8.03
2022-07-31T17:33:59.038Z,4.95
2022-07-31T17:36:29.200Z,5.97
2022-07-31T17:38:58.778Z,6.47
2022-07-31T17:41:26.849Z,4.70
2022-07-31T17:43:54.967Z,5.63
2022-07-31T17:47:07.131Z,5.50
2022-07-31T17:49:11.732Z,5.70
2022-07-31T17:51:59.252Z,5.03
2022-07-31T17:54:35.441Z,8.07
2022-07-31T17:57:03.719Z,5.87
2022-07-31T17:59:33.915Z,6.57
2022-07-31T18:02:04.729Z,7.53
2022-07-31T18:04:36.892Z,5.22
2022-07-31T18:07:09.011Z,5.60
2022-07-31T18:09:38.401Z,5.93
2022-07-31T18:12:14.793Z,3.67
2022-07-31T18:14:43.413Z,6.82
2022-07-31T18:17:11.418Z,5.72
2022-07-31T18:19:39.404Z,6.22
2022-07-31T18:22:07.633Z,6.50
2022-07-31T18:24:35.771Z,6.73
2022-07-31T18:27:05.278Z,7.13
2022-07-31T18:29:33.334Z,4.63
2022-07-31T18:32:01.431Z,6.45
2022-07-31T18:34:29.520Z,8.23
2022-07-31T18:36:57.444Z,7.93
2022-07-31T18:39:25.914Z,6.90
2022-07-31T18:41:54.087Z,5.90
2022-07-31T18:44:23.357Z,6.40
2022-07-31T18:46:51.487Z,8.45
2022-07-31T18:50:59.787Z,8.40
2022-07-31T18:52:08.761Z,7.93
2022-07-31T18:54:37.037Z,8.50
2022-07-31T18:57:05.241Z,6.18
2022-07-31T18:59:36.247Z,10.50
2022-07-31T19:02:08.757Z,11.13
2022-07-31T19:04:39.993Z,8.57
2022-07-31T19:07:08.002Z,6.90
2022-07-31T19:09:35.893Z,9.67
2022-07-31T19:12:08.276Z,9.23
2022-07-31T19:14:38.395Z,10.43
2022-07-31T19:17:08.429Z,7.90
2022-07-31T19:19:52.795Z,10.57
2022-07-31T19:22:24.803Z,10.30
2022-07-31T19:24:55.891Z,10.13
2022-07-31T19:27:46.953Z,8.87
2022-07-31T19:30:14.740Z,7.83
2022-07-31T19:32:42.760Z,6.53
2022-07-31T19:35:11.303Z,7.93
2022-07-31T19:37:41.912Z,9.17
2022-07-31T19:40:11.448Z,8.80
2022-07-31T19:42:40.418Z,6.30
2022-07-31T19:45:11.251Z,7.60
2022-07-31T19:47:41.127Z,8.73
2022-07-31T19:50:10.278Z,6.70
2022-07-31T19:52:38.485Z,8.43
2022-07-31T19:55:15.139Z,8.10
2022-07-31T19:57:43.547Z,6.30
2022-07-31T20:00:13.470Z,7.80
2022-07-31T20:02:47.414Z,8.80
2022-07-31T20:05:17.994Z,7.20
2022-07-31T20:07:46.052Z,4.83
2022-07-31T20:10:14.915Z,7.63
2022-07-31T20:12:44.995Z,4.80
2022-07-31T20:15:13.183Z,4.07
2022-07-31T20:17:44.019Z,4.93
2022-07-31T20:20:15.588Z,5.53
2022-07-31T20:22:44.945Z,4.37
2022-07-31T20:25:19.947Z,5.03
2022-07-31T20:27:49.099Z,4.87
2022-07-31T20:30:22.168Z,4.70
2022-07-31T20:32:56.014Z,5.10
2022-07-31T20:35:29.126Z,4.30
2022-07-31T20:38:03.297Z,4.40
2022-07-31T20:40:31.502Z,4.63
2022-07-31T20:42:59.587Z,3.75
2022-07-31T20:45:28.821Z,4.40
2022-07-31T20:48:00.133Z,4.10
2022-07-31T20:50:30.677Z,3.93
2022-07-31T20:53:00.701Z,3.70
2022-07-31T20:55:35.615Z,4.57
2022-07-31T20:58:04.145Z,3.80
2022-07-31T21:00:34.199Z,6.53
2022-07-31T21:03:06.254Z,4.23
2022-07-31T21:05:34.297Z,4.63
2022-07-31T21:08:06.697Z,5.33
2022-07-31T21:10:35.575Z,3.20
2022-07-31T21:13:04.767Z,4.87
2022-07-31T21:15:42.835Z,3.50
2022-07-31T21:18:17.931Z,3.57
2022-07-31T21:20:51.289Z,3.10
2022-07-31T21:23:21.912Z,3.57
2022-07-31T21:25:50.396Z,2.93
2022-07-31T21:28:19.026Z,4.03
2022-07-31T21:30:47.508Z,3.80
2022-07-31T21:33:18.146Z,6.07
2022-07-31T21:35:47.663Z,3.90
2022-07-31T21:38:17.073Z,4.10
2022-07-31T21:40:47.044Z,4.43
2022-07-31T21:43:18.802Z,3.43
2022-07-31T21:45:57.203Z,2.40
2022-07-31T21:48:32.917Z,3.30
2022-07-31T21:51:05.387Z,3.17
2022-07-31T21:53:33.403Z,2.00
2022-07-31T21:56:03.883Z,2.10
2022-07-31T21:58:32.131Z,1.77
2022-07-31T22:01:00.911Z,1.93
2022-07-31T22:03:30.296Z,1.70
2022-07-31T22:06:15.897Z,1.73
2022-07-31T22:08:44.047Z,1.60
2022-07-31T22:11:13.426Z,1.80
2022-07-31T22:13:41.436Z,1.50
2022-07-31T22:16:09.654Z,1.40
2022-07-31T22:18:39.753Z,1.60
2022-07-31T22:21:09.774Z,1.73
2022-07-31T22:23:38.294Z,2.47
2022-07-31T22:26:07.105Z,1.43
2022-07-31T22:28:36.542Z,1.80
2022-07-31T22:31:04.825Z,1.70
2022-07-31T22:33:33.569Z,1.80
2022-07-31T22:36:08.100Z,2.37
2022-07-31T22:38:38.240Z,2.17
2022-07-31T22:41:07.864Z,1.93
2022-07-31T22:44:13.230Z,2.20
2022-07-31T22:46:24.302Z,2.40
2022-07-31T22:48:55.661Z,2.50
2022-07-31T22:51:25.317Z,2.40
2022-07-31T22:53:53.228Z,2.40
2022-07-31T22:56:21.359Z,2.50
2022-07-31T22:58:49.311Z,2.40
2022-07-31T23:01:17.370Z,2.80
2022-07-31T23:03:45.401Z,2.43
2022-07-31T23:06:31.688Z,3.00
2022-07-31T23:09:02.213Z,3.47
2022-07-31T23:11:30.541Z,3.37
2022-07-31T23:13:58.717Z,2.80
2022-07-31T23:16:27.166Z,3.17
2022-07-31T23:18:55.431Z,3.87
2022-07-31T23:21:24.299Z,3.20
2022-07-31T23:23:53.048Z,3.00
2022-07-31T23:26:25.045Z,3.20
2022-07-31T23:28:54.233Z,3.40
2022-07-31T23:31:22.814Z,3.60
2022-07-31T23:33:52.873Z,4.03
2022-07-31T23:36:21.257Z,3.40
2022-07-31T23:38:52.896Z,2.53
2022-07-31T23:41:36.828Z,4.13
2022-07-31T23:44:05.160Z,2.67
2022-07-31T23:46:37.679Z,3.43
2022-07-31T23:49:07.559Z,2.47
2022-07-31T23:51:35.535Z,2.13
2022-07-31T23:54:05.499Z,2.83
2022-07-31T23:56:37.270Z,2.43
2022-07-31T23:59:05.261Z,2.50
